Participated 3 times
Between 1986 and 1989
Walter Magnago, Italy
Tour de France 2026 starts from Barcelona, Spain in

Stats and Facts from
Tour de France.

2026   2025   2024   2023  2022  2021  2020  2019   2018  2017   2016   2015  2014  2013   2012   2011  2010   2009   2008   2007   2006   2005   2004   2003   2002   2001   2000   1999   1998   1997  1996   1995   1994   1993   1992  1991   1990   1989   1988   1987   1986   1985   1984   1983  1982  1981   1980   1979  1978  1977   1976  1975  1974  1973   1972   1971   1970  1969   1968   1967   1966   1965  1964  1963   1962   1961   1960   1959   1958   1957  1956   1955   1954   1953   1952  1951  1950  1949   1948  1947  1939   1938   1937   1936   1935   1934   1933  1932   1931   1930  1929   1928   1927   1926  1925  1924  1923   1922   1921   1920   1919  1914   1913   1912   1911   1910  1909   1908   1907   1906  1905  1904   1903 

Tourstats
Sitemap

After stage 21 - 2025:
 16451 starters.
  5464 different riders.
  689 teams.
  2398 stages.
  470 restdays.
  466506.50 km.
  5925 abandoned riders.

Click map for 2012 route.
Facts from Tour de France 2012
  |   Stages.  |   Stage winners.  |   Days in jerseys.  |   Teams.  |   All riders.  |   All riders by age.  |   All riders from.  |  

  |   Rookies.  |   Withdrawls.  |   Average speed.  |   GC.  |   Polka  |   Green  |   White  |   Summits. (In tour)  |   Miscellaneous.  |  

Stage 18 on July 20th. 2012
Pick a stage:  Pro  1  2  3  4  5  6  7  8  9  10  11  12  13  14  15  16  17  18  19  20  

After stage 18:    Bradley Wiggins    Thomas  Voeckler    Peter Sagan    Tejay Van Garderen  
  BlagnacBrive-la-Gaillarde | Dist: 222.50km. | Winner: Mark Cavendish

Podium
3  Côte de Saint Georges Nick Nuyensafter67.50 km.

4  Côte de Cahors Michael Albasiniafter117.50 km.

4  Côte de Souillac Yukiya  Arashiroafter180.50 km.

4  Côte de Lissac sur Couze Alexandre Vinokourovafter212.50 km.


Average speed for all riders in stage:  44,991 km./hr.

1
 Mark Cavendish  Sky Procycling04h 54' 12"=45,377  km/h

2
 Matthew Goss  Orica-GreenEDGE04h 54' 12"=45,377  km/h

3
 Peter Sagan  Liquigas-Cannondale04h 54' 12"=45,377  km/h

4  Luis León Sánchez  Rabobank04h 54' 12"=45,377  km/h

5  Nicolas Roche  AG2R La Mondiale04h 54' 12"=45,377  km/h

6  Tyler Farrar  Garmin-Sharp-Barracuda04h 54' 12"=45,377  km/h

7  Borut Božič  Astana Pro Team04h 54' 12"=45,377  km/h

8  Sébastien Hinault  AG2R La Mondiale04h 54' 12"=45,377  km/h

9  Daryl Impey  Orica-GreenEDGE04h 54' 12"=45,377  km/h

10  Samuel Dumoulin  Cofidis Le Credit En Ligne04h 54' 12"=45,377  km/h

11  André Greipel  Lotto-Belisol04h 54' 12"=45,377  km/h

12  Juan José Haedo  Saxo Bank-Tinkoff Bank04h 54' 12"=45,377  km/h

13  Edvald Boasson Hagen  Sky Procycling04h 54' 12"=45,377  km/h

14  Andréas  Klöden  Radioshack–Nissan04h 54' 12"=45,377  km/h

15  Koen De Kort  Argos–Shimano04h 54' 16"+  00:00:04 =45,367  km/h

16  Luca Paolini  Katusha04h 54' 16"+  00:00:04 =45,367  km/h

17  Julien Simon  Saur-Sojasun04h 54' 16"+  00:00:04 =45,367  km/h

18  Lars Bak  Lotto-Belisol04h 54' 16"+  00:00:04 =45,367  km/h

19  Bradley Wiggins  Sky Procycling04h 54' 16"+  00:00:04 =45,367  km/h

20  Marco Marcato  Vacansoleil-DCM04h 54' 16"+  00:00:04 =45,367  km/h

21  Jürgen Roelandts  Lotto-Belisol04h 54' 16"+  00:00:04 =45,367  km/h

22  Chris Froome  Sky Procycling04h 54' 16"+  00:00:04 =45,367  km/h

23  Adam Hansen  Lotto-Belisol04h 54' 16"+  00:00:04 =45,367  km/h

24  Maxime Monfort  Radioshack–Nissan04h 54' 16"+  00:00:04 =45,367  km/h

25  Ruben Perez  Euskaltel-Euskadi04h 54' 16"+  00:00:04 =45,367  km/h

26  Jurgen Van Den Broeck  Lotto-Belisol04h 54' 16"+  00:00:04 =45,367  km/h

27  Vincenzo Nibali  Liquigas-Cannondale04h 54' 16"+  00:00:04 =45,367  km/h

28  Alexandre Vinokourov  Astana Pro Team04h 54' 16"+  00:00:04 =45,367  km/h

29  Danilo Hondo  Lampre-ISD04h 54' 16"+  00:00:04 =45,367  km/h

30  Christopher Horner  Radioshack–Nissan04h 54' 16"+  00:00:04 =45,367  km/h

31  Nicki Sørensen  Saxo Bank-Tinkoff Bank04h 54' 16"+  00:00:04 =45,367  km/h

32  Baden Cooke  Orica-GreenEDGE04h 54' 16"+  00:00:04 =45,367  km/h

33  Haimar  Zubeldía  Radioshack–Nissan04h 54' 16"+  00:00:04 =45,367  km/h

34  Janez Brajkovič  Astana Pro Team04h 54' 16"+  00:00:04 =45,367  km/h

35  Cadel Evans  BMC04h 54' 16"+  00:00:04 =45,367  km/h

36  Eduard Vorganov  Katusha04h 54' 16"+  00:00:04 =45,367  km/h

37  Michael Schär  BMC04h 54' 16"+  00:00:04 =45,367  km/h

38  Egoi Martínez  Euskaltel-Euskadi04h 54' 16"+  00:00:04 =45,367  km/h

39  Christian Vandevelde  Garmin-Sharp-Barracuda04h 54' 16"+  00:00:04 =45,367  km/h

40  Tejay Van Garderen  BMC04h 54' 16"+  00:00:04 =45,367  km/h

41  Pierre Rolland  Europcar04h 54' 16"+  00:00:04 =45,367  km/h

42  Dominik Nerz  Liquigas-Cannondale04h 54' 16"+  00:00:04 =45,367  km/h

43  Thibaut Pinot  FDJ – Big Mat04h 54' 16"+  00:00:04 =45,367  km/h

44  Marcel Sieberg  Lotto-Belisol04h 54' 16"+  00:00:04 =45,367  km/h

45  Ivan Basso  Liquigas-Cannondale04h 54' 16"+  00:00:04 =45,367  km/h

46  Rui Costa  Movistar04h 54' 24"+  00:00:12 =45,346  km/h

47  Vladimir Karpets  Movistar04h 54' 24"+  00:00:12 =45,346  km/h

48  Cyril Gautier  Europcar04h 54' 24"+  00:00:12 =45,346  km/h

49  Maxim Iglinskiy  Astana Pro Team04h 54' 28"+  00:00:16 =45,336  km/h

50  Johnny Hoogerland  Vacansoleil-DCM04h 54' 28"+  00:00:16 =45,336  km/h

51  George Hincapie  BMC04h 54' 28"+  00:00:16 =45,336  km/h

52  Michele Scarponi  Lampre-ISD04h 54' 28"+  00:00:16 =45,336  km/h

53  Juan José Cobo  Movistar04h 54' 28"+  00:00:16 =45,336  km/h

54  Dries Devenyns  Omega Pharma – Quick Step04h 54' 28"+  00:00:16 =45,336  km/h

55  Chris Anker Sørensen  Saxo Bank-Tinkoff Bank04h 54' 28"+  00:00:16 =45,336  km/h

56  Fredrik Kessiakoff  Astana Pro Team04h 54' 28"+  00:00:16 =45,336  km/h

57  Denis Menchov  Katusha04h 54' 28"+  00:00:16 =45,336  km/h

58  Dimitiri Fofonov  Astana Pro Team04h 54' 28"+  00:00:16 =45,336  km/h

59  Jean-Christophe Peraud  AG2R La Mondiale04h 54' 28"+  00:00:16 =45,336  km/h

60  Sandy Casar  FDJ – Big Mat04h 54' 28"+  00:00:16 =45,336  km/h

61  Andriy Grivko  Astana Pro Team04h 54' 28"+  00:00:16 =45,336  km/h

62  Dan Martin  Garmin-Sharp-Barracuda04h 54' 28"+  00:00:16 =45,336  km/h

63  Pierrick  Fédrigo  FDJ – Big Mat04h 54' 28"+  00:00:16 =45,336  km/h

64  Alejandro Valverde  Movistar04h 54' 28"+  00:00:16 =45,336  km/h

65  Philippe Gilbert  BMC04h 54' 28"+  00:00:16 =45,336  km/h

66  Marcus Burghardt  BMC04h 54' 28"+  00:00:16 =45,336  km/h

67  Rubén Plaza  Movistar04h 54' 28"+  00:00:16 =45,336  km/h

68  Sébastien Minard  AG2R La Mondiale04h 54' 28"+  00:00:16 =45,336  km/h

69  Sérgio Paulinho  Saxo Bank-Tinkoff Bank04h 54' 28"+  00:00:16 =45,336  km/h

70  Yury  Trofimov  Katusha04h 54' 28"+  00:00:16 =45,336  km/h

71  Anders Lund  Saxo Bank-Tinkoff Bank04h 54' 28"+  00:00:16 =45,336  km/h

72  Romain Zingle  Cofidis Le Credit En Ligne04h 54' 28"+  00:00:16 =45,336  km/h

73  Jérôme Coppel  Saur-Sojasun04h 54' 28"+  00:00:16 =45,336  km/h

74  Giampaolo Caruso  Katusha04h 54' 28"+  00:00:16 =45,336  km/h

75  Steven Kruijswijk  Rabobank04h 54' 28"+  00:00:16 =45,336  km/h

76  Guillaume Levarlet  Saur-Sojasun04h 54' 28"+  00:00:16 =45,336  km/h

77  Matthieu Sprick  Argos–Shimano04h 54' 45"+  00:00:33 =45,293  km/h

78  Marco Marzano  Lampre-ISD04h 54' 45"+  00:00:33 =45,293  km/h

79  Amaël Moinard  BMC04h 54' 45"+  00:00:33 =45,293  km/h

80  Michael Rogers  Sky Procycling04h 54' 53"+  00:00:41 =45,272  km/h

81  Maxime Bouet  AG2R La Mondiale04h 54' 55"+  00:00:43 =45,267  km/h

82  Cyril Lemoine  Saur-Sojasun04h 54' 59"+  00:00:47 =45,257  km/h

83  Jean-Marc Marino  Saur-Sojasun04h 55' 16"+  00:01:04 =45,213  km/h

84  Davide Malacarne  Europcar04h 55' 23"+  00:01:11 =45,196  km/h

85  Simon Gerrans  Orica-GreenEDGE04h 55' 29"+  00:01:17 =45,180  km/h

86  Vasil Kiryienka  Movistar04h 55' 41"+  00:01:29 =45,150  km/h

87  Sylwester Szmyd  Liquigas-Cannondale04h 55' 43"+  00:01:31 =45,145  km/h

88  Daniel Oss  Liquigas-Cannondale04h 56' 04"+  00:01:52 =45,091  km/h

89  Kristjan Koren  Liquigas-Cannondale04h 56' 06"+  00:01:54 =45,086  km/h

90  Rafael Valls Ferri  Vacansoleil-DCM04h 56' 19"+  00:02:07 =45,053  km/h

91  Nicolas Edet  Cofidis Le Credit En Ligne04h 56' 19"+  00:02:07 =45,053  km/h

92  Francis De Greef  Lotto-Belisol04h 56' 19"+  00:02:07 =45,053  km/h

93  Joan Horrach  Katusha04h 56' 19"+  00:02:07 =45,053  km/h

94  Aliaksandr Kuchynski  Katusha04h 56' 19"+  00:02:07 =45,053  km/h

95  David Zabriskie  Garmin-Sharp-Barracuda04h 56' 19"+  00:02:07 =45,053  km/h

96  Mikaël Cherel  AG2R La Mondiale04h 56' 19"+  00:02:07 =45,053  km/h

97  Matthieu Ladagnous  FDJ – Big Mat04h 56' 19"+  00:02:07 =45,053  km/h

98  Jorge Azanza  Euskaltel-Euskadi04h 56' 19"+  00:02:07 =45,053  km/h

99  Pieter Weening  Orica-GreenEDGE04h 56' 19"+  00:02:07 =45,053  km/h

100  Thomas  Voeckler  Europcar04h 56' 23"+  00:02:11 =45,043  km/h

101  Jérémy Roy  FDJ – Big Mat04h 56' 37"+  00:02:25 =45,008  km/h

102  Stuart O'Grady  Orica-GreenEDGE04h 56' 37"+  00:02:25 =45,008  km/h

103  Johan Vansummeren  Garmin-Sharp-Barracuda04h 57' 17"+  00:03:05 =44,907  km/h

104  Luis Angel Mate  Cofidis Le Credit En Ligne04h 57' 17"+  00:03:05 =44,907  km/h

105  Gregory Henderson  Lotto-Belisol04h 57' 17"+  00:03:05 =44,907  km/h

106  Jan Ghyselinck  Cofidis Le Credit En Ligne04h 57' 17"+  00:03:05 =44,907  km/h

107  Nick Nuyens  Saxo Bank-Tinkoff Bank04h 58' 09"+  00:03:57 =44,776  km/h

108  Jonathan Cantwell  Saxo Bank-Tinkoff Bank04h 58' 09"+  00:03:57 =44,776  km/h

109  Rein Taaramäe  Cofidis Le Credit En Ligne04h 58' 09"+  00:03:57 =44,776  km/h

110  Fabrice Jeandesboz  Saur-Sojasun04h 58' 22"+  00:04:10 =44,744  km/h

111  Martin Velits  Omega Pharma – Quick Step04h 58' 54"+  00:04:42 =44,664  km/h

112  Peter Velits  Omega Pharma – Quick Step04h 58' 54"+  00:04:42 =44,664  km/h

113  Jens Voigt  Radioshack–Nissan04h 58' 54"+  00:04:42 =44,664  km/h

114  Roy Curvers  Argos–Shimano04h 58' 54"+  00:04:42 =44,664  km/h

115  Yukiya  Arashiro  Europcar04h 58' 54"+  00:04:42 =44,664  km/h

116  Yohann Gène  Europcar04h 58' 54"+  00:04:42 =44,664  km/h

117  Patrick Gretsch  Argos–Shimano04h 58' 54"+  00:04:42 =44,664  km/h

118  Simone Stortoni  Lampre-ISD04h 58' 54"+  00:04:42 =44,664  km/h

119  Manuel Quinziato  BMC04h 58' 54"+  00:04:42 =44,664  km/h

120  Cédric Pineau  FDJ – Big Mat04h 58' 54"+  00:04:42 =44,664  km/h

121  Yann Huguet  Argos–Shimano04h 58' 54"+  00:04:42 =44,664  km/h

122  Laurens Ten Dam  Rabobank04h 58' 54"+  00:04:42 =44,664  km/h

123  Kris Boeckmans  Vacansoleil-DCM04h 58' 54"+  00:04:42 =44,664  km/h

124  Albert Timmer  Argos–Shimano04h 58' 54"+  00:04:42 =44,664  km/h

125  Karsten Kroon  Saxo Bank-Tinkoff Bank04h 58' 54"+  00:04:42 =44,664  km/h

126  Christophe Riblon  AG2R La Mondiale04h 58' 54"+  00:04:42 =44,664  km/h

127  Yaroslav Popovych  Radioshack–Nissan04h 59' 12"+  00:05:00 =44,619  km/h

128  Christian Knees  Sky Procycling05h 00' 07"+  00:05:55 =44,483  km/h

129  Kevin De Weert  Omega Pharma – Quick Step05h 02' 02"+  00:07:50 =44,200  km/h

130  Levi Leipheimer  Omega Pharma – Quick Step05h 02' 02"+  00:07:50 =44,200  km/h

131  Jérôme Pineau  Omega Pharma – Quick Step05h 02' 02"+  00:07:50 =44,200  km/h

132  Jelle Vanendert  Lotto-Belisol05h 02' 02"+  00:07:50 =44,200  km/h

133  Julien Fouchard  Cofidis Le Credit En Ligne05h 02' 02"+  00:07:50 =44,200  km/h

134  Michael Albasini  Orica-GreenEDGE05h 02' 02"+  00:07:50 =44,200  km/h

135  Richie Porte  Sky Procycling05h 02' 02"+  00:07:50 =44,200  km/h

136  Federico Canuti  Liquigas-Cannondale05h 02' 02"+  00:07:50 =44,200  km/h

137  Andrey Kashechkin  Astana Pro Team05h 02' 02"+  00:07:50 =44,200  km/h

138  Bert Grabsch  Omega Pharma – Quick Step05h 02' 02"+  00:07:50 =44,200  km/h

139  Bram Tankink  Rabobank05h 02' 02"+  00:07:50 =44,200  km/h

140  Stephen Cummings  BMC05h 02' 02"+  00:07:50 =44,200  km/h

141  Bernhard Eisel  Sky Procycling05h 03' 06"+  00:08:54 =44,045  km/h

142  David Millar  Garmin-Sharp-Barracuda05h 03' 06"+  00:08:54 =44,045  km/h

143  Blel Kadri  AG2R La Mondiale05h 03' 06"+  00:08:54 =44,045  km/h

144  Alessandro Vanotti  Liquigas-Cannondale05h 03' 06"+  00:08:54 =44,045  km/h

145  Jimmy Engoulvent  Saur-Sojasun05h 03' 06"+  00:08:54 =44,045  km/h

146  Arthur Vichot  FDJ – Big Mat05h 03' 06"+  00:08:54 =44,045  km/h

147  Anthony Roux  FDJ – Big Mat05h 03' 06"+  00:08:54 =44,045  km/h

148  Brice Feillu  Saur-Sojasun05h 03' 06"+  00:08:54 =44,045  km/h

149  Michael Mørkøv  Saxo Bank-Tinkoff Bank05h 03' 06"+  00:08:54 =44,045  km/h

150  Pablo Urtasun  Euskaltel-Euskadi05h 03' 06"+  00:08:54 =44,045  km/h

151  Gorka Izagirre  Euskaltel-Euskadi05h 06' 07"+  00:11:55 =43,611  km/h

152  Christophe Kern  Europcar05h 06' 07"+  00:11:55 =43,611  km/h

153  Sebastian Langeveld  Orica-GreenEDGE05h 06' 44"+  00:12:32 =43,523  km/h


Todays birthdays.

1884 • Vincenzo Borgarello
1889 • Emile Bonnefoi
1889 • Auguste Denizot
1890 • Maurice Petit
1904 • Pierino Ferioli
1905 • Vincent Carrara
1910 • Antoon Van Schendel
1925 • Georges Meunier
1945 • Gérard Besnard
1950 • Wim Kelleners
1960 • Ivan Ivanov
1960 • Pierre-Henri Menthéour
1962 • Giovanni Bottoia
1964 • Flavio Giupponi
1974 • Benoit Salmon
1977 • Iñigo Landaluze
1977 • Svein Tuft
1979 • Rubens Bertogliati
1985 • Matthew Busche

 

Optimized for Chrome - Edge
and Opera browsers.